Time;durP1;ratioP1;P1;durP2;ratioP2;P2;SDS_P1;SDS_P2;PMS_P1;PMS_P2;Temp;Humidity;BMP_temperature;BMP_pressure;BME280_temperature;BME280_humidity;BME280_pressure;Samples;Min_cycle;Max_cycle;Signal;HPM_P1;HPM_P2
2021/05/25 00:00:04;;;;;;;;;;;13.00;99.90;;;;;;5101708;28;19930;-76
2021/05/25 00:02:38;;;;;;;;;;;13.00;99.90;;;;;;5086604;28;19928;-78
2021/05/25 00:05:05;;;;;;;;;;;12.90;99.90;;;;;;5067276;28;19929;-76
2021/05/25 00:07:32;;;;;;;;;;;12.90;99.90;;;;;;5086099;28;19928;-77
2021/05/25 00:09:58;;;;;;;;;;;12.80;99.90;;;;;;5086573;28;19935;-76
2021/05/25 00:12:25;;;;;;;;;;;12.80;99.90;;;;;;5085437;28;19932;-76
2021/05/25 00:14:51;;;;;;;;;;;12.70;99.90;;;;;;5067040;28;19928;-76
2021/05/25 00:17:17;;;;;;;;;;;12.80;99.90;;;;;;5069356;28;19955;-77
2021/05/25 00:19:43;;;;;;;;;;;12.70;99.90;;;;;;5082487;28;19966;-77
2021/05/25 00:22:12;;;;;;;;;;;12.80;99.90;;;;;;5085237;28;19928;-77
2021/05/25 00:24:39;;;;;;;;;;;12.70;99.90;;;;;;5100527;28;20054;-77
2021/05/25 00:27:05;;;;;;;;;;;12.70;99.90;;;;;;5102868;28;19954;-77
2021/05/25 00:29:31;;;;;;;;;;;12.70;99.90;;;;;;5084147;28;19931;-77
2021/05/25 00:31:57;;;;;;;;;;;12.70;99.90;;;;;;5069015;28;19941;-76
2021/05/25 00:34:24;;;;;;;;;;;12.70;99.90;;;;;;5082329;28;19928;-78
2021/05/25 00:36:50;;;;;;;;;;;12.60;99.90;;;;;;5088217;28;19924;-76
2021/05/25 00:39:16;;;;;;;;;;;12.60;99.90;;;;;;5083726;28;19928;-76
2021/05/25 00:41:43;;;;;;;;;;;12.50;99.90;;;;;;5086402;28;19969;-76
2021/05/25 00:44:10;;;;;;;;;;;12.50;99.90;;;;;;5085265;28;19924;-76
2021/05/25 00:46:36;;;;;;;;;;;12.50;99.90;;;;;;5068247;28;20308;-77
2021/05/25 00:49:03;;;;;;;;;;;12.50;99.90;;;;;;5084727;28;20309;-78
2021/05/25 00:51:29;;;;;;;;;;;12.60;99.90;;;;;;5086511;28;19931;-75
2021/05/25 00:53:55;;;;;;;;;;;12.50;99.90;;;;;;5085021;28;19924;-75
2021/05/25 00:56:22;;;;;;;;;;;12.50;99.90;;;;;;5102172;28;19924;-78
2021/05/25 00:58:51;;;;;;;;;;;12.50;99.90;;;;;;5084691;28;20014;-78
2021/05/25 01:01:17;;;;;;;;;;;12.50;99.90;;;;;;5087123;28;19924;-76
2021/05/25 01:03:43;;;;;;;;;;;12.40;99.90;;;;;;5083460;28;19939;-78
2021/05/25 01:06:10;;;;;;;;;;;12.30;99.90;;;;;;5085820;28;19924;-78
2021/05/25 01:08:38;;;;;;;;;;;12.30;99.90;;;;;;5099173;28;20340;-77
2021/05/25 01:11:06;;;;;;;;;;;12.30;99.90;;;;;;5069257;28;20034;-78
2021/05/25 01:13:40;;;;;;;;;;;12.20;99.90;;;;;;5080922;28;19924;-77
2021/05/25 01:16:07;;;;;;;;;;;12.20;99.90;;;;;;5099575;28;20372;-77
2021/05/25 01:18:34;;;;;;;;;;;12.20;99.90;;;;;;5081780;28;19925;-77
2021/05/25 01:21:00;;;;;;;;;;;12.20;99.90;;;;;;5083248;28;20360;-77
2021/05/25 01:23:28;;;;;;;;;;;12.20;99.90;;;;;;5085044;28;20376;-78
2021/05/25 01:25:54;;;;;;;;;;;12.20;99.90;;;;;;5079730;28;19928;-77
2021/05/25 01:28:21;;;;;;;;;;;12.20;99.90;;;;;;5085764;28;19924;-77
2021/05/25 01:30:48;;;;;;;;;;;12.20;99.90;;;;;;5084081;28;19931;-78
2021/05/25 01:33:15;;;;;;;;;;;12.20;99.90;;;;;;5103313;28;19925;-76
2021/05/25 01:35:41;;;;;;;;;;;12.20;99.90;;;;;;5084587;28;19989;-76
2021/05/25 01:38:09;;;;;;;;;;;12.20;99.90;;;;;;5085571;28;19930;-76
2021/05/25 01:40:36;;;;;;;;;;;12.20;99.90;;;;;;5102980;28;19928;-76
2021/05/25 01:43:03;;;;;;;;;;;12.20;99.90;;;;;;5087417;28;20018;-75
2021/05/25 01:45:30;;;;;;;;;;;12.20;99.90;;;;;;5087652;28;19924;-76
2021/05/25 01:47:57;;;;;;;;;;;12.20;99.90;;;;;;5086697;28;19938;-77
2021/05/25 01:50:25;;;;;;;;;;;12.20;99.90;;;;;;5090256;28;20315;-77
2021/05/25 01:52:53;;;;;;;;;;;12.20;99.90;;;;;;5071246;28;19928;-76
2021/05/25 01:55:23;;;;;;;;;;;12.20;99.90;;;;;;5087862;28;19924;-76
2021/05/25 01:57:51;;;;;;;;;;;12.20;99.90;;;;;;5088704;28;19939;-76
2021/05/25 02:00:17;;;;;;;;;;;12.20;99.90;;;;;;5104703;28;19967;-77
2021/05/25 02:02:44;;;;;;;;;;;12.20;99.90;;;;;;5089072;28;19924;-76
2021/05/25 02:05:10;;;;;;;;;;;12.20;99.90;;;;;;5086515;28;19932;-77
2021/05/25 02:07:36;;;;;;;;;;;12.20;99.90;;;;;;5086065;28;20376;-77
2021/05/25 02:10:03;;;;;;;;;;;12.20;99.90;;;;;;5087526;28;20426;-76
2021/05/25 02:12:29;;;;;;;;;;;12.30;99.90;;;;;;5089877;28;20288;-77
2021/05/25 02:14:56;;;;;;;;;;;12.30;99.90;;;;;;5071468;28;20148;-77
2021/05/25 02:17:25;;;;;;;;;;;12.20;99.90;;;;;;5088961;28;19928;-76
2021/05/25 02:19:51;;;;;;;;;;;12.20;99.90;;;;;;5087185;28;19974;-77
2021/05/25 02:22:17;;;;;;;16.05;8.43;;;12.20;99.90;;;;;;5086868;28;20010;-76
2021/05/25 02:24:43;;;;;;;;;;;12.20;99.90;;;;;;5086049;28;20418;-77
2021/05/25 02:27:10;;;;;;;;;;;12.20;99.90;;;;;;5083109;28;19930;-76
2021/05/25 02:29:36;;;;;;;;;;;12.20;99.90;;;;;;5083845;28;20018;-76
2021/05/25 02:32:03;;;;;;;;;;;12.20;99.90;;;;;;5085151;28;20311;-77
2021/05/25 02:34:29;;;;;;;;;;;12.20;99.90;;;;;;5089557;28;19920;-76
2021/05/25 02:36:56;;;;;;;;;;;12.20;99.90;;;;;;5087264;28;19942;-76
2021/05/25 02:39:22;;;;;;;;;;;12.20;99.90;;;;;;5087512;28;19925;-76
2021/05/25 02:41:48;;;;;;;;;;;12.10;99.90;;;;;;5088049;28;19963;-77
2021/05/25 02:44:14;;;;;;;;;;;12.10;99.90;;;;;;5087705;28;19920;-77
2021/05/25 02:46:40;;;;;;;;;;;12.00;99.90;;;;;;5069548;28;19920;-77
2021/05/25 02:49:08;;;;;;;;;;;11.80;99.90;;;;;;5096731;28;19924;-76
2021/05/25 02:51:34;;;;;;;;;;;11.70;99.90;;;;;;5088771;28;20489;-76
2021/05/25 02:54:00;;;;;;;;;;;11.50;99.90;;;;;;5087022;28;19943;-78
2021/05/25 02:56:26;;;;;;;;;;;11.40;99.90;;;;;;5070640;28;19924;-77
2021/05/25 02:58:54;;;;;;;;;;;11.30;99.90;;;;;;5088242;28;19927;-78
2021/05/25 03:01:20;;;;;;;;;;;11.20;99.90;;;;;;5089658;28;19931;-77
2021/05/25 03:03:47;;;;;;;23.20;13.50;;;11.20;99.90;;;;;;5069572;28;19924;-78
2021/05/25 03:06:14;;;;;;;24.30;14.00;;;11.10;99.90;;;;;;5104604;28;20932;-79
2021/05/25 03:08:40;;;;;;;27.55;13.77;;;11.10;99.90;;;;;;5068360;28;20472;-79
2021/05/25 03:11:07;;;;;;;21.47;12.37;;;11.10;99.90;;;;;;5084454;28;20423;-79
2021/05/25 03:13:33;;;;;;;20.05;11.57;;;11.00;99.90;;;;;;5084533;28;20447;-78
2021/05/25 03:16:00;;;;;;;23.85;12.10;;;11.00;99.90;;;;;;5070257;28;20838;-78
2021/05/25 03:18:26;;;;;;;21.98;13.07;;;10.90;99.90;;;;;;5083507;28;20426;-77
2021/05/25 03:20:53;;;;;;;24.40;14.57;;;10.80;99.90;;;;;;5088422;28;20505;-82
2021/05/25 03:23:20;;;;;;;28.00;15.40;;;10.80;99.90;;;;;;5086356;28;20983;-79
2021/05/25 03:25:48;;;;;;;29.38;16.50;;;10.70;99.90;;;;;;5086660;28;20445;-81
2021/05/25 03:28:15;;;;;;;25.33;15.73;;;10.80;99.90;;;;;;5101805;28;20418;-80
2021/05/25 03:30:43;;;;;;;26.45;15.50;;;10.80;99.90;;;;;;5101016;28;20430;-79
2021/05/25 03:33:10;;;;;;;29.38;15.75;;;10.80;99.90;;;;;;5069972;28;20430;-80
2021/05/25 03:35:36;;;;;;;25.97;14.33;;;10.70;99.90;;;;;;5086443;28;21356;-80
2021/05/25 03:38:03;;;;;;;29.58;15.07;;;10.70;99.90;;;;;;5085015;28;20902;-81
2021/05/25 03:40:31;;;;;;;26.40;14.13;;;10.70;99.90;;;;;;5103537;28;20492;-78
2021/05/25 03:42:57;;;;;;;26.02;15.00;;;10.70;99.90;;;;;;5085013;28;20464;-79
2021/05/25 03:45:25;;;;;;;22.83;14.65;;;10.70;99.90;;;;;;5087043;28;20456;-80
2021/05/25 03:47:52;;;;;;;24.95;14.07;;;10.70;99.90;;;;;;5099009;28;20421;-78
2021/05/25 03:50:19;;;;;;;22.87;14.23;;;10.70;99.90;;;;;;5084191;28;20951;-78
2021/05/25 03:52:47;;;;;;;21.95;13.82;;;10.70;99.90;;;;;;5085166;28;20983;-78
2021/05/25 03:55:21;;;;;;;26.30;13.63;;;10.60;99.90;;;;;;5100247;28;20467;-80
2021/05/25 04:00:34;;;;;;;27.92;14.40;;;10.60;99.90;;;;;;5084543;28;20418;-78
2021/05/25 04:03:00;;;;;;;28.67;14.48;;;10.60;99.90;;;;;;5084077;28;20444;-77
2021/05/25 04:05:27;;;;;;;25.45;14.18;;;10.60;99.90;;;;;;5068897;28;20929;-78
2021/05/25 04:07:53;;;;;;;26.93;14.63;;;10.60;99.90;;;;;;5085019;28;20430;-77
2021/05/25 04:10:20;;;;;;;25.73;14.30;;;10.60;99.90;;;;;;5099062;28;20894;-79
2021/05/25 04:12:46;;;;;;;26.98;14.30;;;10.70;99.90;;;;;;5083867;28;20979;-77
2021/05/25 04:15:14;;;;;;;29.80;14.80;;;10.70;99.90;;;;;;5065707;28;20425;-77
2021/05/25 04:17:42;;;;;;;28.83;15.23;;;10.60;99.90;;;;;;5083917;28;21279;-78
2021/05/25 04:20:10;;;;;;;27.02;14.73;;;10.70;99.90;;;;;;5085406;28;20906;-77
2021/05/25 04:22:37;;;;;;;24.83;14.52;;;10.70;99.90;;;;;;5085796;28;20422;-78
2021/05/25 04:25:04;;;;;;;25.23;15.05;;;10.70;99.90;;;;;;5081533;28;20414;-78
2021/05/25 04:27:30;;;;;;;25.90;15.00;;;10.70;99.90;;;;;;5083239;28;20966;-77
2021/05/25 04:29:57;;;;;;;25.88;15.60;;;10.70;99.90;;;;;;5083995;28;21440;-80
2021/05/25 04:32:24;;;;;;;25.63;15.38;;;10.70;99.90;;;;;;5083727;28;20437;-77
2021/05/25 04:34:50;;;;;;;25.55;15.10;;;10.70;99.90;;;;;;5080810;28;20984;-77
2021/05/25 04:37:17;;;;;;;24.58;15.20;;;10.70;99.90;;;;;;5080273;28;20417;-81
2021/05/25 04:39:43;;;;;;;24.52;15.10;;;10.70;99.90;;;;;;5084686;28;20512;-77
2021/05/25 04:42:10;;;;;;;23.73;14.88;;;10.70;99.90;;;;;;5080142;28;20966;-77
2021/05/25 04:44:36;;;;;;;23.45;14.73;;;10.70;99.90;;;;;;5086091;28;20919;-77
2021/05/25 04:47:03;;;;;;;25.35;14.73;;;10.80;99.90;;;;;;5065930;28;20431;-77
2021/05/25 04:49:32;;;;;;;26.17;14.60;;;10.80;99.90;;;;;;5067112;28;20779;-77
2021/05/25 04:51:58;;;;;;;27.70;15.40;;;10.80;99.90;;;;;;5084136;28;20924;-77
2021/05/25 04:54:25;;;;;;;25.20;14.15;;;10.70;99.90;;;;;;5083422;28;20524;-76
2021/05/25 04:56:53;;;;;;;24.35;14.52;;;10.80;99.90;;;;;;5080626;28;20520;-77
2021/05/25 04:59:20;;;;;;;20.83;13.90;;;10.70;99.90;;;;;;5099444;28;20432;-78
2021/05/25 05:01:47;;;;;;;22.98;14.30;;;10.80;99.90;;;;;;5085703;28;20486;-76
2021/05/25 05:04:13;;;;;;;22.98;14.13;;;10.80;99.90;;;;;;5070856;28;21001;-76
2021/05/25 05:06:41;;;;;;;26.20;14.07;;;10.80;99.90;;;;;;5086509;28;20446;-77
2021/05/25 05:09:07;;;;;;;20.77;13.98;;;10.80;99.90;;;;;;5086858;28;20421;-78
2021/05/25 05:11:33;;;;;;;21.95;13.60;;;10.90;99.90;;;;;;5088637;28;20437;-76
2021/05/25 05:14:00;;;;;;;24.05;13.50;;;10.90;99.90;;;;;;5066292;28;20943;-76
2021/05/25 05:16:26;;;;;;;25.15;14.32;;;11.00;99.90;;;;;;5089470;28;20421;-76
2021/05/25 05:18:53;;;;;;;22.73;13.17;;;11.00;99.90;;;;;;5087246;28;21211;-77
2021/05/25 05:21:19;;;;;;;21.00;13.68;;;11.10;99.90;;;;;;5089017;28;20421;-76
2021/05/25 05:23:46;;;;;;;25.70;13.10;;;11.10;99.90;;;;;;5087920;28;20417;-77
2021/05/25 05:26:13;;;;;;;22.27;13.23;;;11.20;99.90;;;;;;5087348;28;20425;-76
2021/05/25 05:28:39;;;;;;;20.95;13.00;;;11.20;99.90;;;;;;5085024;28;20422;-76
2021/05/25 05:31:06;;;;;;;21.95;12.82;;;11.30;99.90;;;;;;5085637;28;20554;-76
2021/05/25 05:33:32;;;;;;;22.40;12.82;;;11.30;99.90;;;;;;5087644;28;20459;-78
2021/05/25 05:35:58;;;;;;;20.30;13.13;;;11.30;99.90;;;;;;5085285;28;20549;-78
2021/05/25 05:38:25;;;;;;;20.45;13.35;;;11.30;99.90;;;;;;5088088;28;20941;-76
2021/05/25 05:40:54;;;;;;;22.08;12.85;;;11.30;99.90;;;;;;5087331;28;20414;-79
2021/05/25 05:43:20;;;;;;;24.77;13.60;;;11.20;99.90;;;;;;5090124;28;20444;-81
2021/05/25 05:45:47;;;;;;;25.02;14.27;;;11.30;99.90;;;;;;5082155;28;20418;-81
2021/05/25 05:48:13;;;;;;;23.42;13.13;;;11.20;99.90;;;;;;5088204;28;20425;-78
2021/05/25 05:50:39;;;;;;;21.70;13.23;;;11.30;99.90;;;;;;5085759;28;20453;-77
2021/05/25 05:53:06;;;;;;;19.35;13.02;;;11.40;99.90;;;;;;5068380;28;20421;-75
2021/05/25 05:55:32;;;;;;;19.92;12.65;;;11.40;99.90;;;;;;5089393;28;20494;-78
2021/05/25 05:58:00;;;;;;;21.05;12.50;;;11.50;99.90;;;;;;5089892;28;20460;-76
2021/05/25 06:00:26;;;;;;;23.73;12.73;;;11.50;99.90;;;;;;5090322;28;20472;-77
2021/05/25 06:02:52;;;;;;;22.95;12.20;;;11.60;99.90;;;;;;5089393;28;20417;-77
2021/05/25 06:05:19;;;;;;;22.25;12.65;;;11.60;99.90;;;;;;5088008;28;20428;-78
2021/05/25 06:07:45;;;;;;;24.23;12.43;;;11.70;99.90;;;;;;5105656;28;20790;-74
2021/05/25 06:10:13;;;;;;;22.45;11.07;;;11.80;99.90;;;;;;5090109;28;20487;-77
2021/05/25 06:12:39;;;;;;;24.55;11.40;;;11.90;99.90;;;;;;5088392;28;20427;-74
2021/05/25 06:15:08;;;;;;;20.88;9.70;;;11.90;99.90;;;;;;5090104;28;20431;-73
2021/05/25 06:17:34;;;;;;;24.90;10.15;;;12.00;99.90;;;;;;5089581;28;20781;-74
2021/05/25 06:20:01;;;;;;;27.08;9.20;;;12.10;99.90;;;;;;5072368;28;20508;-74
2021/05/25 06:22:27;;;;;;;31.50;8.55;;;12.10;99.90;;;;;;5090008;28;20992;-74
2021/05/25 06:24:54;;;;;;;29.45;6.57;;;12.20;99.90;;;;;;5087291;28;20417;-74
2021/05/25 06:27:20;;;;;;;23.73;5.85;;;12.20;99.90;;;;;;5090103;28;20422;-75
2021/05/25 06:29:47;;;;;;;22.70;4.77;;;12.30;99.90;;;;;;5088425;28;20755;-75
2021/05/25 06:32:14;;;;;;;20.55;4.40;;;12.40;99.90;;;;;;5090272;28;20421;-75
2021/05/25 06:34:41;;;;;;;24.13;3.88;;;12.40;99.90;;;;;;5090025;28;20409;-75
2021/05/25 06:37:07;;;;;;;20.43;3.50;;;12.50;99.90;;;;;;5089081;28;20420;-76
2021/05/25 06:39:34;;;;;;;19.80;3.65;;;12.50;99.90;;;;;;5089705;28;20509;-75
2021/05/25 06:42:00;;;;;;;19.60;3.55;;;12.60;99.90;;;;;;5090042;28;20410;-74
2021/05/25 06:44:31;;;;;;;17.52;3.00;;;12.70;99.90;;;;;;5069708;28;20417;-74
2021/05/25 06:46:57;;;;;;;17.80;3.50;;;12.70;99.90;;;;;;5089483;28;20469;-74
2021/05/25 06:49:25;;;;;;;18.48;3.17;;;12.80;99.90;;;;;;5071577;28;20939;-76
2021/05/25 06:51:51;;;;;;;16.85;3.08;;;12.80;99.90;;;;;;5088474;28;20479;-74
2021/05/25 06:54:17;;;;;;;19.77;3.25;;;12.90;99.90;;;;;;5087510;28;20422;-74
2021/05/25 06:56:44;;;;;;;20.17;3.58;;;12.90;99.90;;;;;;5089556;28;20401;-74
2021/05/25 06:59:11;;;;;;;17.23;3.10;;;12.90;99.90;;;;;;5070731;28;20420;-75
2021/05/25 07:01:37;;;;;;;14.85;2.35;;;13.00;99.90;;;;;;5087940;28;20493;-74
2021/05/25 07:04:04;;;;;;;15.23;2.22;;;13.00;99.90;;;;;;5089215;28;20409;-75
2021/05/25 07:06:31;;;;;;;12.15;2.28;;;13.00;99.90;;;;;;5089537;28;20557;-74
2021/05/25 07:08:58;;;;;;;12.48;2.03;;;13.00;99.90;;;;;;5088827;28;21063;-75
2021/05/25 07:11:24;;;;;;;9.73;2.25;;;13.00;99.90;;;;;;5067758;28;20437;-76
2021/05/25 07:13:51;;;;;;;9.75;2.10;;;13.00;99.90;;;;;;5087186;28;20439;-74
2021/05/25 07:16:17;;;;;;;13.00;2.80;;;13.00;99.90;;;;;;5088708;28;20812;-74
2021/05/25 07:18:44;;;;;;;13.73;2.72;;;13.00;99.90;;;;;;5089791;28;20897;-75
2021/05/25 07:21:10;;;;;;;14.10;2.67;;;13.00;99.90;;;;;;5103815;28;20425;-74
2021/05/25 07:23:38;;;;;;;11.13;2.33;;;13.00;99.90;;;;;;5088735;28;20746;-75
2021/05/25 07:26:04;;;;;;;12.73;2.65;;;13.10;99.90;;;;;;5069694;28;20432;-75
2021/05/25 07:28:31;;;;;;;14.98;2.80;;;13.10;99.90;;;;;;5087136;28;20425;-75
2021/05/25 07:30:57;;;;;;;14.18;2.90;;;13.10;99.90;;;;;;5084745;28;20425;-75
2021/05/25 07:33:25;;;;;;;10.88;2.80;;;13.10;99.90;;;;;;5086175;28;20825;-74
2021/05/25 07:35:52;;;;;;;14.68;2.63;;;13.10;99.90;;;;;;5088044;28;20417;-75
2021/05/25 07:38:19;;;;;;;11.87;2.53;;;13.00;99.90;;;;;;5084008;28;20834;-76
2021/05/25 07:40:46;;;;;;;11.48;2.90;;;13.00;99.90;;;;;;5080834;28;20433;-75
2021/05/25 07:43:13;;;;;;;11.50;2.65;;;13.00;99.90;;;;;;5080845;28;20753;-75
2021/05/25 07:45:39;;;;;;;13.07;3.90;;;13.00;99.90;;;;;;5084528;28;20429;-76
2021/05/25 07:48:06;;;;;;;11.20;2.50;;;13.00;99.90;;;;;;5065381;28;20436;-74
2021/05/25 07:50:33;;;;;;;14.13;2.70;;;13.00;99.90;;;;;;5066560;28;20422;-75
2021/05/25 07:52:59;;;;;;;10.18;2.78;;;13.10;99.90;;;;;;5082081;28;20419;-74
2021/05/25 07:55:28;;;;;;;8.50;2.55;;;13.10;99.90;;;;;;5083950;28;20517;-74
2021/05/25 07:57:56;;;;;;;8.85;2.25;;;13.20;99.90;;;;;;5080267;28;20468;-75
2021/05/25 08:00:23;;;;;;;9.50;2.40;;;13.20;99.90;;;;;;5083211;28;20463;-75
2021/05/25 08:02:50;;;;;;;9.32;2.42;;;13.30;99.90;;;;;;5097587;28;20421;-75
2021/05/25 08:05:18;;;;;;;11.30;2.70;;;13.30;99.90;;;;;;5084075;28;20914;-74
2021/05/25 08:07:45;;;;;;;10.90;2.65;;;13.40;99.90;;;;;;5083893;28;20430;-75
2021/05/25 08:10:13;;;;;;;9.07;2.50;;;13.40;99.90;;;;;;5063773;28;20541;-74
2021/05/25 08:12:40;;;;;;;9.85;2.60;;;13.50;99.90;;;;;;5064678;28;20429;-74
2021/05/25 08:15:10;;;;;;;10.98;3.25;;;13.50;99.90;;;;;;5084744;28;20448;-76
2021/05/25 08:17:49;;;;;;;13.02;3.05;;;13.50;99.90;;;;;;5084239;28;20425;-74
2021/05/25 08:20:18;;;;;;;10.57;2.70;;;13.50;99.90;;;;;;5082255;28;20433;-73
2021/05/25 08:22:46;;;;;;;11.15;3.00;;;13.50;99.90;;;;;;5080476;28;20421;-73
2021/05/25 08:25:14;;;;;;;13.17;3.40;;;13.50;99.90;;;;;;5065759;28;20479;-76
2021/05/25 08:27:40;;;;;;;13.27;2.92;;;13.40;99.90;;;;;;5081868;28;20427;-75
2021/05/25 08:30:09;;;;;;;11.32;3.50;;;13.40;99.90;;;;;;5083821;28;20491;-75
2021/05/25 08:32:36;;;;;;;12.65;3.20;;;13.40;99.90;;;;;;5083378;28;20410;-75
2021/05/25 08:35:04;;;;;;;15.57;3.60;;;13.40;99.90;;;;;;5085299;28;20432;-75
2021/05/25 08:37:32;;;;;;;12.15;3.55;;;13.50;99.90;;;;;;5087735;28;20418;-76
2021/05/25 08:39:59;;;;;;;12.80;3.55;;;13.50;99.90;;;;;;5070534;28;20428;-75
2021/05/25 08:42:25;;;;;;;12.93;3.70;;;13.50;99.90;;;;;;5085650;28;20421;-75
2021/05/25 08:44:51;;;;;;;14.23;3.55;;;13.60;99.90;;;;;;5089336;28;20417;-74
2021/05/25 08:47:19;;;;;;;15.40;3.28;;;13.60;99.90;;;;;;5069220;28;20417;-75
2021/05/25 08:49:46;;;;;;;12.85;3.78;;;13.60;99.90;;;;;;5089069;28;20486;-75
2021/05/25 08:52:15;;;;;;;12.35;3.53;;;13.60;99.90;;;;;;5086384;28;21182;-75
2021/05/25 08:54:43;;;;;;;13.80;3.38;;;13.70;99.90;;;;;;5103161;28;20419;-75
2021/05/25 08:57:09;;;;;;;13.27;3.60;;;13.70;99.90;;;;;;5086388;28;20462;-75
2021/05/25 08:59:36;;;;;;;11.40;3.45;;;13.70;99.90;;;;;;5085072;28;20431;-75
2021/05/25 09:02:04;;;;;;;13.85;3.55;;;13.70;99.90;;;;;;5087545;28;20444;-74
2021/05/25 09:04:57;;;;;;;15.02;3.30;;;13.80;99.90;;;;;;5086423;28;20436;-75
2021/05/25 09:07:39;;;;;;;10.77;2.70;;;13.80;99.90;;;;;;5085445;28;20418;-74
2021/05/25 09:10:09;;;;;;;9.60;2.60;;;13.80;99.40;;;;;;5100379;28;20431;-75
2021/05/25 09:12:39;;;;;;;10.77;2.42;;;13.80;99.60;;;;;;5064670;28;20424;-75
2021/05/25 09:15:07;;;;;;;;;;;13.90;99.50;;;;;;5104789;28;20409;-74
2021/05/25 09:17:33;;;;;;;;;;;14.00;99.60;;;;;;5087474;28;19919;-75
2021/05/25 09:20:00;;;;;;;;;;;14.10;99.90;;;;;;5105143;28;19919;-75
2021/05/25 09:22:28;;;;;;;;;;;14.10;99.90;;;;;;5088629;28;19920;-76
2021/05/25 09:24:54;;;;;;;;;;;14.20;99.90;;;;;;5105476;28;19926;-76
2021/05/25 09:27:27;;;;;;;;;;;14.30;99.40;;;;;;5086851;28;19920;-75
2021/05/25 09:30:08;;;;;;;;;;;14.30;99.10;;;;;;5088116;28;19920;-76
2021/05/25 09:32:37;;;;;;;;;;;14.30;98.90;;;;;;5086554;28;20253;-75
2021/05/25 09:35:06;;;;;;;;;;;14.30;99.30;;;;;;5070293;28;19928;-75
2021/05/25 09:37:39;;;;;;;;;;;14.40;99.00;;;;;;5088092;28;19927;-75
2021/05/25 09:40:06;;;;;;;;;;;14.30;98.60;;;;;;5088402;28;19946;-75
2021/05/25 09:42:33;;;;;;;;;;;14.30;99.10;;;;;;5088266;28;20008;-75
2021/05/25 09:45:00;;;;;;;;;;;14.30;99.10;;;;;;5088406;28;19934;-76
2021/05/25 09:47:33;;;;;;;;;;;14.20;99.10;;;;;;5087304;28;20015;-76
2021/05/25 09:50:00;;;;;;;;;;;14.20;98.90;;;;;;5082520;28;19946;-76
2021/05/25 09:52:27;;;;;;;;;;;14.10;98.20;;;;;;5105154;28;19919;-76
2021/05/25 09:55:03;;;;;;;;;;;14.00;98.40;;;;;;5088605;28;19951;-75
2021/05/25 09:57:47;;;;;;;17.92;3.35;;;14.00;98.10;;;;;;5086678;28;19978;-74
2021/05/25 10:00:24;;;;;;;11.23;3.28;;;14.00;98.40;;;;;;5069186;28;20924;-75
2021/05/25 10:03:12;;;;;;;13.65;3.30;;;14.10;98.60;;;;;;5086096;28;20448;-75
2021/05/25 10:05:38;;;;;;;11.32;3.05;;;14.20;98.20;;;;;;5088111;28;20417;-75
2021/05/25 10:08:06;;;;;;;14.75;3.55;;;14.30;98.40;;;;;;5083322;28;20417;-76
2021/05/25 10:10:34;;;;;;;15.47;3.87;;;14.40;98.30;;;;;;5079635;28;20437;-75
2021/05/25 10:13:01;;;;;;;16.08;3.90;;;14.40;97.70;;;;;;5085058;28;20478;-75
2021/05/25 10:15:28;;;;;;;17.73;4.20;;;14.40;98.40;;;;;;5086707;28;20479;-76
2021/05/25 10:18:17;;;;;;;12.20;3.60;;;14.50;98.80;;;;;;5084471;28;20801;-75
2021/05/25 10:20:44;;;;;;;15.30;3.70;;;14.60;98.60;;;;;;5087400;28;20790;-75
2021/05/25 10:23:12;;;;;;;13.77;3.25;;;14.60;97.60;;;;;;5084752;28;21038;-75
2021/05/25 10:25:40;;;;;;;14.25;3.72;;;14.70;96.60;;;;;;5084702;28;21255;-76
2021/05/25 10:28:09;;;;;;;12.32;3.58;;;14.60;96.30;;;;;;5082249;28;20425;-75
2021/05/25 10:30:44;;;;;;;11.60;3.60;;;14.60;96.30;;;;;;5084098;28;20437;-75
2021/05/25 10:33:35;;;;;;;12.07;3.30;;;14.50;96.20;;;;;;5062850;28;20445;-76
2021/05/25 10:36:09;;;;;;;13.52;3.03;;;14.50;96.10;;;;;;5098650;28;20434;-75
2021/05/25 10:38:56;;;;;;;12.80;3.78;;;14.40;95.60;;;;;;5082877;28;20417;-75
2021/05/25 10:41:28;;;;;;;11.23;3.90;;;14.40;95.80;;;;;;5080007;28;20443;-75
2021/05/25 10:43:56;;;;;;;18.08;3.50;;;14.40;96.50;;;;;;5094623;28;20449;-76
2021/05/25 10:46:25;;;;;;;9.98;3.50;;;14.40;95.90;;;;;;5085844;28;20894;-75
2021/05/25 10:52:22;;;;;;;15.85;3.78;;;14.50;96.10;;;;;;5083888;28;20520;-74
2021/05/25 10:54:59;;;;;;;15.07;3.40;;;14.50;96.10;;;;;;5084329;28;20827;-74
2021/05/25 10:57:49;;;;;;;9.35;3.40;;;14.50;95.80;;;;;;5082479;28;20428;-74
2021/05/25 11:00:22;;;;;;;14.75;3.85;;;14.60;95.40;;;;;;5067516;28;20421;-76
2021/05/25 11:02:52;;;;;;;13.45;3.78;;;14.60;95.50;;;;;;5085373;28;20959;-74
2021/05/25 11:05:40;;;;;;;12.45;3.78;;;14.60;95.70;;;;;;5086550;28;20417;-75
2021/05/25 11:08:27;;;;;;;12.50;3.77;;;14.70;96.10;;;;;;5083672;28;20475;-74
2021/05/25 11:11:08;;;;;;;11.00;3.47;;;14.80;95.80;;;;;;5083011;28;20464;-74
2021/05/25 11:13:40;;;;;;;8.98;2.90;;;14.90;95.70;;;;;;5061774;28;20418;-74
2021/05/25 11:16:10;;;;;;;9.88;2.75;;;15.00;96.10;;;;;;5066296;28;20455;-75
2021/05/25 11:18:41;;;;;;;;;;;15.20;94.80;;;;;;5080662;28;20425;-74
2021/05/25 11:21:19;;;;;;;10.60;2.85;;;15.30;94.90;;;;;;5088009;28;20971;-74
2021/05/25 11:23:48;;;;;;;13.65;2.97;;;15.40;94.40;;;;;;5067085;28;20527;-75
2021/05/25 11:26:52;;;;;;;9.40;2.60;;;15.50;93.50;;;;;;5086945;28;20422;-75
2021/05/25 11:29:21;;;;;;;9.45;2.90;;;15.50;93.60;;;;;;5080290;28;20441;-77
2021/05/25 11:31:48;;;;;;;8.60;2.58;;;15.40;93.50;;;;;;5083476;28;20438;-77
2021/05/25 11:34:16;;;;;;;10.00;2.40;;;15.30;94.00;;;;;;5084044;28;20436;-78
2021/05/25 11:36:42;;;;;;;8.13;2.30;;;15.20;93.60;;;;;;5084159;28;20425;-78
2021/05/25 11:39:11;;;;;;;9.43;2.50;;;15.00;93.40;;;;;;5101938;28;20422;-76
2021/05/25 11:41:38;;;;;;;8.32;2.17;;;14.90;93.80;;;;;;5068624;28;20421;-75
2021/05/25 11:44:06;;;;;;;8.80;2.05;;;14.90;94.50;;;;;;5084485;28;20506;-76
2021/05/25 11:46:42;;;;;;;8.40;2.03;;;14.90;94.20;;;;;;5085987;28;20901;-77
2021/05/25 11:49:09;;;;;;;8.32;2.17;;;15.00;93.70;;;;;;5085350;28;20453;-77
2021/05/25 11:51:36;;;;;;;8.23;2.00;;;15.00;93.40;;;;;;5086227;28;20421;-77
2021/05/25 11:54:15;;;;;;;7.22;2.00;;;15.00;93.70;;;;;;5065124;28;20440;-79
2021/05/25 11:56:46;;;;;;;6.13;1.80;;;15.00;93.30;;;;;;5080911;28;20429;-79
2021/05/25 11:59:14;;;;;;;5.10;1.83;;;15.00;93.10;;;;;;5081904;28;20435;-76
2021/05/25 12:01:44;;;;;;;8.27;1.90;;;15.00;93.10;;;;;;5080937;28;20921;-75
2021/05/25 12:04:11;;;;;;;8.45;1.88;;;15.10;93.30;;;;;;5083980;28;20420;-76
2021/05/25 12:06:47;;;;;;;6.85;1.88;;;15.20;93.80;;;;;;5083901;28;20417;-76
2021/05/25 12:09:14;;;;;;;8.52;1.58;;;15.20;92.70;;;;;;5081471;28;20434;-76
2021/05/25 12:11:42;;;;;;;9.45;1.90;;;15.20;92.70;;;;;;5082798;28;20759;-77
2021/05/25 12:14:09;;;;;;;6.60;1.60;;;15.30;92.30;;;;;;5085205;28;20433;-77
2021/05/25 12:16:36;;;;;;;9.48;2.00;;;15.30;92.70;;;;;;5082636;28;20787;-75
2021/05/25 12:19:04;;;;;;;9.88;2.50;;;15.30;93.20;;;;;;5085268;28;20429;-76
2021/05/25 12:21:31;;;;;;;9.52;2.05;;;15.30;93.50;;;;;;5080221;28;21150;-76
2021/05/25 12:23:58;;;;;;;10.15;2.30;;;15.30;93.50;;;;;;5085487;28;22014;-76
2021/05/25 12:26:24;;;;;;;9.85;2.00;;;15.40;93.40;;;;;;5080459;28;20423;-75
2021/05/25 12:28:53;;;;;;;8.85;2.08;;;15.30;93.50;;;;;;5084998;28;20429;-75
2021/05/25 12:31:21;;;;;;;10.55;2.10;;;15.40;93.40;;;;;;5081354;28;20726;-74
2021/05/25 12:33:50;;;;;;;9.50;2.20;;;15.50;93.00;;;;;;5083464;28;20487;-76
2021/05/25 12:36:21;;;;;;;10.45;1.90;;;15.50;92.80;;;;;;5060502;28;20477;-76
2021/05/25 12:38:58;;;;;;;7.15;1.90;;;15.50;92.80;;;;;;5079895;28;20413;-76
2021/05/25 12:41:25;;;;;;;8.80;1.90;;;15.40;92.10;;;;;;5078680;28;20770;-76
2021/05/25 12:44:06;;;;;;;9.77;2.15;;;15.40;91.80;;;;;;5078411;28;20428;-77
2021/05/25 12:46:35;;;;;;;9.68;2.17;;;15.30;91.80;;;;;;5080009;28;20502;-75
2021/05/25 12:49:02;;;;;;;7.18;2.00;;;15.30;92.10;;;;;;5083205;28;20751;-74
2021/05/25 12:51:30;;;;;;;8.50;2.10;;;15.30;92.30;;;;;;5081894;28;20534;-74
2021/05/25 12:53:59;;;;;;;7.18;2.10;;;15.20;92.30;;;;;;5084094;28;20453;-75
2021/05/25 12:56:26;;;;;;;9.35;2.30;;;15.10;92.30;;;;;;5081163;28;20431;-76
2021/05/25 12:58:53;;;;;;;9.95;2.38;;;15.10;92.80;;;;;;5085651;28;20438;-76
2021/05/25 13:01:28;;;;;;;8.13;2.35;;;15.00;93.40;;;;;;5079700;28;20504;-73
2021/05/25 13:04:17;;;;;;;7.13;2.00;;;14.90;93.70;;;;;;5083056;28;20425;-74
2021/05/25 13:06:48;;;;;;;7.85;2.00;;;14.80;94.60;;;;;;5081218;28;20474;-75
2021/05/25 13:09:18;;;;;;;6.53;2.03;;;14.80;94.80;;;;;;5066075;28;20851;-77
2021/05/25 13:11:56;;;;;;;14.15;2.20;;;14.80;94.70;;;;;;5065973;28;21008;-76
2021/05/25 13:14:23;;;;;;;13.55;2.30;;;14.80;95.70;;;;;;5083399;28;20429;-76